createdAt,value
2019-06-20T00:00:10.141Z,16.16
2019-06-20T00:01:10.118Z,16.18
2019-06-20T00:02:10.154Z,16.17
2019-06-20T00:03:10.138Z,16.16
2019-06-20T00:04:10.081Z,16.21
2019-06-20T00:05:10.075Z,16.17
2019-06-20T00:06:10.063Z,16.16
2019-06-20T00:07:10.053Z,16.18
2019-06-20T00:08:10.054Z,16.17
2019-06-20T00:09:10.036Z,16.25
2019-06-20T00:10:10.022Z,16.17
2019-06-20T00:11:10.007Z,16.17
2019-06-20T00:12:09.999Z,16.25
2019-06-20T00:13:10.005Z,16.22
2019-06-20T00:14:10.020Z,16.17
2019-06-20T00:15:09.995Z,16.16
2019-06-20T00:16:09.958Z,16.06
2019-06-20T00:17:09.939Z,16.17
2019-06-20T00:18:09.954Z,16.18
2019-06-20T00:19:09.939Z,16.12
2019-06-20T00:20:09.958Z,16.17
2019-06-20T00:21:09.897Z,16.10
2019-06-20T00:22:09.906Z,16.05
2019-06-20T00:23:22.121Z,16.06
2019-06-20T00:24:09.859Z,16.08
2019-06-20T00:25:09.872Z,16.02
2019-06-20T00:26:09.850Z,16.13
2019-06-20T00:27:09.833Z,16.09
2019-06-20T00:28:09.815Z,16.09
2019-06-20T00:29:09.814Z,16.06
2019-06-20T00:30:09.794Z,16.10
2019-06-20T00:31:09.795Z,16.03
2019-06-20T00:32:09.771Z,16.12
2019-06-20T00:33:09.794Z,16.03
2019-06-20T00:34:09.758Z,16.10
2019-06-20T00:35:09.741Z,16.03
2019-06-20T00:36:09.745Z,16.21
2019-06-20T00:37:09.729Z,16.26
2019-06-20T00:38:09.705Z,16.21
2019-06-20T00:39:09.732Z,16.13
2019-06-20T00:40:09.699Z,16.18
2019-06-20T00:41:09.677Z,16.13
2019-06-20T00:42:09.840Z,16.17
2019-06-20T00:43:17.529Z,16.05
2019-06-20T00:44:10.639Z,16.16
2019-06-20T00:45:09.643Z,16.12
2019-06-20T00:46:09.625Z,16.16
2019-06-20T00:47:09.618Z,16.09
2019-06-20T00:48:09.610Z,16.21
2019-06-20T00:49:09.655Z,16.10
2019-06-20T00:50:09.585Z,16.17
2019-06-20T00:51:09.584Z,16.06
2019-06-20T00:52:09.563Z,16.03
2019-06-20T00:53:09.556Z,16.05
2019-06-20T00:54:22.564Z,16.08
2019-06-20T00:55:09.515Z,16.10
2019-06-20T00:56:09.511Z,16.09
2019-06-20T00:57:09.497Z,16.05
2019-06-20T00:58:09.484Z,16.16
2019-06-20T00:59:09.472Z,16.16
2019-06-20T01:00:09.487Z,16.05
2019-06-20T01:01:09.455Z,16.13
2019-06-20T01:02:09.439Z,16.02
2019-06-20T01:03:09.431Z,16.06
2019-06-20T01:04:09.430Z,16.13
2019-06-20T01:05:09.448Z,16.02
2019-06-20T01:06:09.395Z,16.06
2019-06-20T01:07:09.570Z,16.17
2019-06-20T01:08:09.376Z,16.12
2019-06-20T01:09:09.372Z,16.06
2019-06-20T01:10:09.396Z,16.13
2019-06-20T01:11:09.341Z,16.17
2019-06-20T01:12:09.339Z,16.06
2019-06-20T01:13:09.316Z,16.16
2019-06-20T01:14:09.322Z,16.12
2019-06-20T01:15:09.301Z,16.12
2019-06-20T01:16:09.291Z,16.16
2019-06-20T01:17:09.275Z,16.21
2019-06-20T01:18:09.370Z,16.17
2019-06-20T01:19:09.249Z,16.24
2019-06-20T01:20:09.239Z,16.18
2019-06-20T01:21:09.282Z,16.22
2019-06-20T01:22:09.217Z,16.24
2019-06-20T01:23:09.220Z,16.26
2019-06-20T01:24:09.201Z,16.25
2019-06-20T01:25:21.586Z,16.21
2019-06-20T01:26:09.212Z,16.34
2019-06-20T01:27:09.163Z,16.29
2019-06-20T01:28:09.157Z,16.31
2019-06-20T01:29:09.144Z,16.28
2019-06-20T01:30:09.187Z,16.26
2019-06-20T01:31:09.123Z,16.29
2019-06-20T01:32:09.198Z,16.32
2019-06-20T01:33:09.103Z,16.36
2019-06-20T01:34:09.108Z,16.44
2019-06-20T01:35:09.079Z,16.39
2019-06-20T01:36:09.075Z,16.47
2019-06-20T01:37:09.051Z,16.54
2019-06-20T01:38:09.049Z,16.47
2019-06-20T01:39:09.029Z,16.57
2019-06-20T01:40:09.023Z,16.57
2019-06-20T01:41:09.024Z,16.57
2019-06-20T01:42:09.010Z,16.68
2019-06-20T01:43:08.988Z,16.76
2019-06-20T01:44:08.978Z,16.79
2019-06-20T01:45:08.963Z,16.83
2019-06-20T01:46:08.960Z,16.95
2019-06-20T01:47:09.000Z,16.87
2019-06-20T01:48:08.946Z,16.94
2019-06-20T01:49:08.930Z,17.04
2019-06-20T01:50:08.906Z,17.10
2019-06-20T01:51:08.901Z,17.10
2019-06-20T01:52:08.891Z,17.12
2019-06-20T01:53:08.914Z,17.17
2019-06-20T01:54:08.877Z,17.31
2019-06-20T01:55:08.859Z,17.27
2019-06-20T01:56:21.215Z,17.37
2019-06-20T01:57:08.829Z,17.44
2019-06-20T01:58:08.824Z,17.56
2019-06-20T01:59:08.828Z,17.75
2019-06-20T02:00:08.821Z,18.06
2019-06-20T02:01:08.788Z,18.24
2019-06-20T02:02:08.781Z,18.57
2019-06-20T02:03:08.775Z,18.78
2019-06-20T02:04:08.799Z,19.07
2019-06-20T02:05:08.754Z,19.37
2019-06-20T02:06:08.737Z,19.67
2019-06-20T02:07:08.719Z,19.99
2019-06-20T02:08:08.740Z,20.27
2019-06-20T02:09:08.711Z,20.39
2019-06-20T02:10:08.732Z,20.59
2019-06-20T02:11:09.625Z,20.71
2019-06-20T02:12:08.676Z,20.86
2019-06-20T02:13:08.660Z,21.07
2019-06-20T02:14:08.647Z,21.13
2019-06-20T02:15:08.640Z,21.29
2019-06-20T02:16:08.664Z,21.51
2019-06-20T02:17:08.617Z,21.63
2019-06-20T02:18:08.607Z,21.75
2019-06-20T02:19:08.586Z,21.80
2019-06-20T02:20:08.600Z,21.89
2019-06-20T02:21:08.573Z,22.04
2019-06-20T02:22:08.584Z,22.06
2019-06-20T02:23:08.555Z,22.28
2019-06-20T02:24:08.553Z,22.44
2019-06-20T02:25:08.533Z,22.43
2019-06-20T02:26:08.528Z,22.31
2019-06-20T02:27:20.530Z,22.47
2019-06-20T02:28:08.489Z,22.74
2019-06-20T02:29:08.485Z,22.81
2019-06-20T02:30:08.474Z,22.86
2019-06-20T02:31:08.491Z,22.92
2019-06-20T02:32:08.450Z,22.77
2019-06-20T02:33:08.440Z,22.58
2019-06-20T02:34:08.429Z,22.61
2019-06-20T02:35:08.422Z,22.47
2019-06-20T02:36:08.410Z,22.62
2019-06-20T02:37:08.405Z,22.81
2019-06-20T02:38:08.397Z,23.07
2019-06-20T02:39:08.381Z,23.25
2019-06-20T02:40:08.368Z,23.32
2019-06-20T02:41:08.363Z,23.32
2019-06-20T02:42:08.362Z,23.23
2019-06-20T02:43:08.339Z,23.28
2019-06-20T02:44:28.325Z,23.29
2019-06-20T02:45:09.312Z,23.26
2019-06-20T02:46:08.308Z,23.45
2019-06-20T02:47:08.304Z,23.51
2019-06-20T02:48:08.282Z,23.67
2019-06-20T02:49:08.275Z,23.69
2019-06-20T02:50:08.266Z,23.77
2019-06-20T02:51:08.243Z,23.47
2019-06-20T02:52:08.232Z,23.55
2019-06-20T02:53:08.238Z,23.66
2019-06-20T02:54:08.213Z,23.82
2019-06-20T02:55:08.199Z,24.06
2019-06-20T02:56:08.186Z,24.11
2019-06-20T02:57:08.191Z,24.19
2019-06-20T02:58:20.752Z,24.37
2019-06-20T02:59:08.159Z,24.26
2019-06-20T03:00:08.149Z,24.09
2019-06-20T03:01:08.134Z,24.16
2019-06-20T03:02:08.123Z,24.11
2019-06-20T03:03:08.112Z,24.19
2019-06-20T03:04:08.112Z,24.19
2019-06-20T03:05:08.099Z,24.55
2019-06-20T03:06:08.079Z,24.78
2019-06-20T03:07:08.081Z,24.79
2019-06-20T03:08:08.067Z,24.86
2019-06-20T03:09:08.089Z,24.65
2019-06-20T03:10:08.060Z,24.66
2019-06-20T03:11:08.035Z,24.75
2019-06-20T03:12:08.025Z,24.97
2019-06-20T03:13:09.516Z,25.19
2019-06-20T03:14:08.001Z,25.19
2019-06-20T03:15:07.999Z,25.30
2019-06-20T03:16:07.977Z,25.36
2019-06-20T03:17:08.127Z,25.46
2019-06-20T03:18:07.959Z,25.40
2019-06-20T03:19:07.949Z,25.59
2019-06-20T03:20:07.955Z,25.83
2019-06-20T03:21:07.920Z,25.80
2019-06-20T03:22:07.914Z,25.95
2019-06-20T03:23:07.904Z,26.26
2019-06-20T03:24:07.981Z,26.18
2019-06-20T03:25:07.903Z,26.27
2019-06-20T03:26:07.879Z,26.18
2019-06-20T03:27:07.866Z,26.23
2019-06-20T03:28:07.860Z,26.26
2019-06-20T03:29:20.243Z,26.16
2019-06-20T03:30:07.833Z,25.96
2019-06-20T03:31:07.823Z,25.95
2019-06-20T03:32:07.813Z,26.01
2019-06-20T03:33:07.798Z,25.83
2019-06-20T03:34:07.786Z,26.01
2019-06-20T03:35:07.774Z,26.26
2019-06-20T03:36:07.760Z,26.19
2019-06-20T03:37:07.766Z,26.34
2019-06-20T03:38:07.755Z,26.29
2019-06-20T03:39:07.737Z,26.59
2019-06-20T03:40:07.721Z,26.61
2019-06-20T03:41:07.714Z,26.78
2019-06-20T03:42:07.744Z,27.07
2019-06-20T03:43:07.694Z,27.29
2019-06-20T03:44:07.706Z,27.35
2019-06-20T03:45:07.677Z,27.30
2019-06-20T03:46:07.657Z,27.41
2019-06-20T03:47:07.657Z,27.38
2019-06-20T03:48:07.659Z,27.67
2019-06-20T03:49:07.630Z,27.76
2019-06-20T03:50:07.625Z,27.60
2019-06-20T03:51:07.651Z,27.73
2019-06-20T03:52:07.605Z,27.07
2019-06-20T03:53:07.600Z,26.67
2019-06-20T03:54:07.580Z,26.16
2019-06-20T03:55:07.570Z,25.34
2019-06-20T03:56:07.564Z,25.03
2019-06-20T03:57:07.556Z,24.81
2019-06-20T03:58:07.592Z,25.25
2019-06-20T03:59:07.534Z,25.88
2019-06-20T04:00:19.902Z,26.30
2019-06-20T04:01:07.512Z,27.01
2019-06-20T04:02:07.499Z,27.37
2019-06-20T04:03:07.481Z,27.78
2019-06-20T04:04:07.507Z,27.88
2019-06-20T04:05:07.468Z,27.37
2019-06-20T04:06:07.452Z,27.38
2019-06-20T04:07:07.445Z,27.47
2019-06-20T04:08:07.468Z,27.82
2019-06-20T04:09:07.426Z,27.68
2019-06-20T04:10:07.435Z,27.88
2019-06-20T04:11:07.414Z,28.23
2019-06-20T04:12:07.412Z,28.55
2019-06-20T04:13:07.388Z,28.82
2019-06-20T04:14:07.376Z,29.13
2019-06-20T04:15:18.479Z,29.16
2019-06-20T04:16:08.354Z,29.46
2019-06-20T04:17:07.343Z,29.83
2019-06-20T04:18:07.327Z,29.87
2019-06-20T04:19:07.323Z,29.68
2019-06-20T04:20:07.362Z,29.57
2019-06-20T04:21:07.298Z,29.21
2019-06-20T04:22:07.301Z,28.74
2019-06-20T04:23:07.280Z,29.18
2019-06-20T04:24:07.274Z,29.10
2019-06-20T04:25:07.266Z,28.70
2019-06-20T04:26:07.311Z,28.37
2019-06-20T04:27:07.235Z,28.43
2019-06-20T04:28:07.248Z,28.96
2019-06-20T04:29:07.213Z,28.82
2019-06-20T04:30:07.210Z,29.27
2019-06-20T04:31:19.381Z,29.37
2019-06-20T04:32:07.184Z,29.59
2019-06-20T04:33:07.182Z,29.40
2019-06-20T04:34:07.168Z,29.07
2019-06-20T04:35:07.155Z,29.10
2019-06-20T04:36:07.146Z,29.55
2019-06-20T04:37:07.178Z,29.67
2019-06-20T04:38:07.125Z,29.61
2019-06-20T04:39:18.851Z,29.20
2019-06-20T04:40:08.146Z,29.32
2019-06-20T04:41:07.101Z,29.58
2019-06-20T04:42:07.098Z,29.76
2019-06-20T04:43:07.139Z,29.57
2019-06-20T04:44:07.067Z,29.98
2019-06-20T04:45:07.054Z,29.98
2019-06-20T04:46:07.824Z,30.16
2019-06-20T04:47:07.042Z,30.26
2019-06-20T04:48:07.044Z,30.52
2019-06-20T04:49:07.047Z,30.73
2019-06-20T04:50:07.010Z,30.67
2019-06-20T04:51:06.995Z,30.43
2019-06-20T04:52:06.987Z,29.58
2019-06-20T04:53:06.987Z,29.86
2019-06-20T04:54:06.993Z,30.08
2019-06-20T04:55:06.955Z,30.16
2019-06-20T04:56:06.945Z,30.27
2019-06-20T04:57:06.940Z,30.18
2019-06-20T04:58:06.964Z,30.40
2019-06-20T04:59:06.921Z,30.70
2019-06-20T05:00:06.913Z,30.78
2019-06-20T05:01:06.913Z,30.96
2019-06-20T05:02:18.734Z,30.98
2019-06-20T05:03:06.881Z,30.62
2019-06-20T05:04:06.875Z,30.51
2019-06-20T05:05:06.863Z,30.85
2019-06-20T05:06:06.854Z,31.20
2019-06-20T05:07:06.839Z,31.41
2019-06-20T05:08:06.844Z,31.62
2019-06-20T05:09:06.862Z,31.45
2019-06-20T05:10:06.810Z,30.91
2019-06-20T05:11:06.817Z,30.77
2019-06-20T05:12:06.786Z,30.83
2019-06-20T05:13:06.821Z,31.29
2019-06-20T05:14:06.818Z,31.32
2019-06-20T05:15:06.775Z,31.30
2019-06-20T05:16:06.770Z,30.96
2019-06-20T05:17:07.349Z,31.42
2019-06-20T05:18:06.736Z,31.72
2019-06-20T05:19:06.728Z,32.08
2019-06-20T05:20:06.702Z,32.20
2019-06-20T05:21:06.709Z,31.39
2019-06-20T05:22:06.695Z,31.18
2019-06-20T05:23:06.732Z,31.77
2019-06-20T05:24:06.672Z,31.95
2019-06-20T05:25:06.693Z,32.19
2019-06-20T05:26:06.657Z,32.01
2019-06-20T05:27:06.634Z,31.77
2019-06-20T05:28:06.624Z,31.79
2019-06-20T05:29:06.615Z,31.90
2019-06-20T05:30:06.605Z,32.07
2019-06-20T05:31:06.607Z,32.45
2019-06-20T05:32:06.606Z,31.95
2019-06-20T05:33:18.195Z,32.30
2019-06-20T05:34:06.560Z,32.54
2019-06-20T05:35:06.552Z,32.54
2019-06-20T05:36:06.538Z,32.71
2019-06-20T05:37:06.555Z,32.42
2019-06-20T05:38:06.521Z,31.81
2019-06-20T05:39:06.512Z,31.95
2019-06-20T05:40:06.510Z,32.29
2019-06-20T05:41:06.530Z,32.00
2019-06-20T05:42:06.562Z,31.72
2019-06-20T05:43:06.482Z,31.33
2019-06-20T05:44:06.466Z,31.35
2019-06-20T05:45:06.448Z,31.13
2019-06-20T05:46:10.599Z,31.30
2019-06-20T05:47:12.353Z,30.73
2019-06-20T05:48:07.691Z,30.03
2019-06-20T05:49:06.411Z,29.96
2019-06-20T05:50:06.401Z,30.10
2019-06-20T05:51:06.398Z,30.52
2019-06-20T05:52:06.962Z,31.13
2019-06-20T05:53:06.366Z,31.44
2019-06-20T05:54:06.394Z,31.81
2019-06-20T05:55:06.352Z,31.90
2019-06-20T05:56:06.344Z,31.93
2019-06-20T05:57:06.326Z,31.02
2019-06-20T05:58:06.353Z,30.96
2019-06-20T05:59:06.315Z,31.00
2019-06-20T06:00:06.296Z,30.69
2019-06-20T06:01:06.285Z,30.78
2019-06-20T06:02:06.444Z,31.02
2019-06-20T06:03:07.276Z,31.45
2019-06-20T06:04:19.042Z,31.66
2019-06-20T06:05:06.245Z,31.63
2019-06-20T06:06:06.243Z,31.82
2019-06-20T06:07:06.232Z,31.92
2019-06-20T06:08:06.219Z,32.07
2019-06-20T06:09:06.216Z,32.31
2019-06-20T06:10:06.240Z,32.45
2019-06-20T06:11:06.196Z,32.53
2019-06-20T06:12:07.336Z,32.78
2019-06-20T06:13:06.177Z,32.12
2019-06-20T06:14:06.158Z,32.07
2019-06-20T06:15:07.256Z,31.79
2019-06-20T06:16:06.156Z,31.60
2019-06-20T06:17:06.129Z,31.73
2019-06-20T06:18:06.119Z,31.69
2019-06-20T06:19:06.114Z,31.30
2019-06-20T06:20:06.154Z,30.96
2019-06-20T06:21:06.097Z,30.86
2019-06-20T06:22:06.078Z,30.61
2019-06-20T06:23:06.065Z,30.62
2019-06-20T06:24:06.069Z,30.13
2019-06-20T06:25:06.048Z,29.90
2019-06-20T06:26:06.050Z,29.81
2019-06-20T06:27:06.050Z,29.47
2019-06-20T06:28:06.083Z,29.03
2019-06-20T06:29:06.002Z,28.80
2019-06-20T06:30:05.998Z,28.45
2019-06-20T06:31:06.026Z,27.98
2019-06-20T06:32:05.983Z,27.55
2019-06-20T06:33:05.978Z,27.48
2019-06-20T06:34:05.953Z,27.57
2019-06-20T06:35:17.820Z,27.57
2019-06-20T06:36:05.937Z,27.40
2019-06-20T06:37:06.024Z,27.37
2019-06-20T06:38:05.909Z,27.37
2019-06-20T06:39:05.913Z,27.13
2019-06-20T06:40:05.889Z,26.83
2019-06-20T06:41:05.879Z,26.82
2019-06-20T06:42:05.889Z,26.85
2019-06-20T06:43:05.858Z,27.00
2019-06-20T06:44:08.371Z,27.13
2019-06-20T06:45:05.848Z,26.82
2019-06-20T06:46:05.837Z,26.81
2019-06-20T06:47:05.823Z,26.93
2019-06-20T06:48:05.824Z,27.18
2019-06-20T06:49:05.798Z,27.10
2019-06-20T06:50:05.795Z,27.29
2019-06-20T06:51:05.783Z,27.15
2019-06-20T06:52:05.796Z,27.23
2019-06-20T06:53:05.771Z,27.13
2019-06-20T06:54:05.744Z,26.97
2019-06-20T06:55:05.748Z,26.70
2019-06-20T06:56:05.732Z,26.93
2019-06-20T06:57:05.714Z,27.01
2019-06-20T06:58:05.781Z,27.41
2019-06-20T06:59:05.712Z,27.26
2019-06-20T07:00:05.678Z,27.25
2019-06-20T07:01:05.671Z,27.38
2019-06-20T07:02:05.667Z,27.34
2019-06-20T07:03:05.663Z,27.45
2019-06-20T07:04:05.663Z,27.53
2019-06-20T07:05:05.636Z,27.52
2019-06-20T07:06:17.124Z,27.50
2019-06-20T07:07:05.604Z,27.45
2019-06-20T07:08:05.603Z,27.60
2019-06-20T07:09:05.606Z,27.41
2019-06-20T07:10:05.590Z,27.63
2019-06-20T07:11:05.565Z,27.43
2019-06-20T07:12:05.561Z,27.43
2019-06-20T07:13:05.545Z,27.52
2019-06-20T07:14:05.569Z,27.45
2019-06-20T07:15:05.543Z,27.38
2019-06-20T07:16:05.514Z,27.45
2019-06-20T07:17:05.510Z,27.37
2019-06-20T07:18:05.489Z,26.97
2019-06-20T07:19:05.487Z,26.83
2019-06-20T07:20:05.470Z,27.05
2019-06-20T07:21:05.542Z,27.30
2019-06-20T07:22:05.455Z,27.40
2019-06-20T07:23:05.441Z,27.45
2019-06-20T07:24:05.432Z,27.44
2019-06-20T07:25:05.422Z,27.44
2019-06-20T07:26:05.406Z,27.47
2019-06-20T07:27:05.492Z,27.55
2019-06-20T07:28:05.386Z,27.52
2019-06-20T07:29:05.396Z,27.40
2019-06-20T07:30:05.374Z,27.30
2019-06-20T07:31:05.364Z,26.97
2019-06-20T07:32:05.341Z,27.01
2019-06-20T07:33:05.359Z,27.16
2019-06-20T07:34:05.331Z,27.40
2019-06-20T07:35:05.320Z,27.52
2019-06-20T07:36:05.302Z,27.73
2019-06-20T07:37:17.625Z,27.78
2019-06-20T07:38:05.286Z,27.83
2019-06-20T07:39:05.274Z,27.95
2019-06-20T07:40:05.261Z,28.01
2019-06-20T07:41:05.243Z,27.91
2019-06-20T07:42:05.351Z,27.73
2019-06-20T07:43:05.226Z,27.79
2019-06-20T07:44:05.217Z,27.81
2019-06-20T07:45:05.204Z,27.82
2019-06-20T07:46:05.230Z,28.04
2019-06-20T07:47:16.986Z,28.00
2019-06-20T07:48:06.187Z,27.98
2019-06-20T07:49:05.158Z,28.04
2019-06-20T07:50:05.169Z,27.73
2019-06-20T07:51:05.145Z,27.86
2019-06-20T07:52:05.132Z,27.88
2019-06-20T07:53:05.127Z,28.12
2019-06-20T07:54:05.118Z,28.30
2019-06-20T07:55:05.114Z,28.30
2019-06-20T07:56:05.108Z,28.41
2019-06-20T07:57:05.088Z,28.55
2019-06-20T07:58:05.363Z,28.70
2019-06-20T07:59:05.061Z,28.53
2019-06-20T08:00:05.055Z,28.43
2019-06-20T08:01:05.048Z,28.64
2019-06-20T08:02:05.029Z,28.55
2019-06-20T08:03:05.033Z,28.50
2019-06-20T08:04:05.023Z,28.45
2019-06-20T08:05:04.995Z,28.50
2019-06-20T08:06:04.983Z,28.41
2019-06-20T08:07:04.972Z,28.35
2019-06-20T08:08:17.150Z,28.33
2019-06-20T08:09:04.962Z,28.31
2019-06-20T08:10:04.976Z,28.20
2019-06-20T08:11:04.929Z,28.27
2019-06-20T08:12:04.920Z,28.27
2019-06-20T08:13:04.909Z,28.37
2019-06-20T08:14:04.900Z,28.18
2019-06-20T08:15:14.614Z,28.09
2019-06-20T08:16:05.912Z,27.86
2019-06-20T08:17:04.875Z,27.88
2019-06-20T08:18:04.849Z,27.91
2019-06-20T08:19:04.857Z,27.98
2019-06-20T08:20:04.847Z,27.97
2019-06-20T08:21:04.826Z,27.82
2019-06-20T08:22:04.822Z,27.98
2019-06-20T08:23:04.801Z,27.95
2019-06-20T08:24:04.793Z,27.83
2019-06-20T08:25:05.374Z,27.88
2019-06-20T08:26:04.790Z,27.98
2019-06-20T08:27:04.968Z,28.22
2019-06-20T08:28:04.748Z,28.34
2019-06-20T08:29:18.667Z,28.37
2019-06-20T08:30:07.192Z,28.52
2019-06-20T08:31:04.866Z,28.67
2019-06-20T08:32:04.707Z,28.55
2019-06-20T08:33:10.355Z,28.38
2019-06-20T08:34:06.543Z,28.56
2019-06-20T08:35:04.671Z,28.68
2019-06-20T08:36:04.693Z,28.78
2019-06-20T08:37:04.652Z,28.72
2019-06-20T08:38:05.662Z,28.67
2019-06-20T08:39:17.244Z,28.55
2019-06-20T08:40:04.620Z,28.56
2019-06-20T08:41:04.749Z,28.64
2019-06-20T08:42:04.595Z,28.71
2019-06-20T08:43:05.844Z,28.70
2019-06-20T08:44:04.576Z,28.71
2019-06-20T08:45:06.038Z,28.57
2019-06-20T08:46:09.955Z,28.50
2019-06-20T08:47:05.931Z,28.47
2019-06-20T08:48:04.764Z,28.35
2019-06-20T08:49:05.732Z,28.33
2019-06-20T08:50:05.926Z,28.57
2019-06-20T08:51:04.621Z,28.72
2019-06-20T08:52:05.562Z,28.68
2019-06-20T08:53:05.689Z,28.60
2019-06-20T08:54:05.442Z,28.64
2019-06-20T08:55:05.446Z,28.75
2019-06-20T08:56:05.507Z,28.71
2019-06-20T08:57:05.729Z,28.84
2019-06-20T08:58:05.621Z,28.89
2019-06-20T08:59:04.857Z,28.68
2019-06-20T09:03:04.374Z,28.59
2019-06-20T09:04:04.374Z,28.71
2019-06-20T09:05:04.404Z,28.70
2019-06-20T09:06:04.402Z,28.65
2019-06-20T09:09:04.498Z,28.90
2019-06-20T09:10:15.793Z,28.82
2019-06-20T09:11:04.285Z,28.97
2019-06-20T09:12:05.116Z,29.16
2019-06-20T09:13:04.261Z,28.96
2019-06-20T09:14:04.254Z,28.78
2019-06-20T09:15:04.249Z,28.62
2019-06-20T09:16:04.243Z,28.67
2019-06-20T09:17:04.262Z,28.43
2019-06-20T09:18:04.210Z,28.52
2019-06-20T09:19:04.204Z,28.41
2019-06-20T09:20:04.207Z,28.41
2019-06-20T09:21:04.201Z,28.46
2019-06-20T09:22:05.033Z,28.67
2019-06-20T09:23:04.166Z,28.74
2019-06-20T09:24:04.219Z,28.86
2019-06-20T09:25:04.155Z,28.96
2019-06-20T09:26:04.167Z,28.94
2019-06-20T09:27:04.325Z,28.93
2019-06-20T09:28:04.129Z,28.84
2019-06-20T09:29:04.187Z,28.96
2019-06-20T09:30:04.093Z,29.05
2019-06-20T09:31:04.172Z,28.83
2019-06-20T09:32:04.670Z,28.84
2019-06-20T09:33:04.748Z,29.07
2019-06-20T09:34:05.397Z,28.93
2019-06-20T09:35:04.032Z,29.02
2019-06-20T09:36:04.135Z,29.13
2019-06-20T09:37:04.087Z,29.24
2019-06-20T09:38:04.012Z,29.30
2019-06-20T09:39:03.995Z,29.16
2019-06-20T09:40:03.981Z,29.15
2019-06-20T09:41:15.706Z,29.07
2019-06-20T09:42:03.963Z,29.18
2019-06-20T09:43:03.963Z,29.13
2019-06-20T09:44:03.939Z,28.94
2019-06-20T09:45:03.926Z,29.07
2019-06-20T09:46:03.924Z,29.03
2019-06-20T09:47:03.995Z,29.06
2019-06-20T09:48:03.903Z,29.25
2019-06-20T09:49:03.892Z,29.35
2019-06-20T09:50:03.910Z,29.49
2019-06-20T09:51:03.869Z,29.47
2019-06-20T09:52:03.863Z,29.61
2019-06-20T09:53:03.888Z,29.84
2019-06-20T09:54:03.858Z,29.57
2019-06-20T09:55:03.825Z,29.40
2019-06-20T09:56:03.821Z,29.35
2019-06-20T09:57:03.819Z,29.25
2019-06-20T09:58:03.796Z,29.37
2019-06-20T09:59:03.799Z,29.44
2019-06-20T10:00:10.036Z,29.43
2019-06-20T10:01:04.760Z,29.52
2019-06-20T10:02:03.758Z,29.65
2019-06-20T10:03:03.918Z,29.68
2019-06-20T10:04:03.828Z,29.71
2019-06-20T10:05:03.725Z,29.80
2019-06-20T10:06:13.450Z,29.80
2019-06-20T10:07:04.696Z,29.50
2019-06-20T10:08:03.691Z,29.40
2019-06-20T10:09:03.687Z,29.28
2019-06-20T10:10:03.700Z,29.30
2019-06-20T10:11:03.662Z,29.27
2019-06-20T10:12:15.596Z,29.27
2019-06-20T10:13:03.638Z,29.39
2019-06-20T10:14:03.627Z,29.50
2019-06-20T10:15:03.621Z,29.55
2019-06-20T10:16:03.602Z,29.46
2019-06-20T10:17:03.616Z,29.62
2019-06-20T10:18:03.576Z,29.53
2019-06-20T10:19:03.570Z,29.65
2019-06-20T10:20:03.575Z,29.46
2019-06-20T10:21:03.555Z,29.46
2019-06-20T10:22:03.542Z,29.39
2019-06-20T10:23:03.531Z,29.16
2019-06-20T10:24:03.528Z,29.07
2019-06-20T10:25:03.514Z,29.21
2019-06-20T10:26:03.509Z,29.15
2019-06-20T10:27:03.522Z,28.94
2019-06-20T10:28:03.512Z,28.97
2019-06-20T10:29:03.650Z,28.97
2019-06-20T10:30:14.069Z,29.02
2019-06-20T10:31:04.500Z,28.93
2019-06-20T10:32:03.431Z,28.96
2019-06-20T10:33:03.431Z,28.97
2019-06-20T10:34:03.438Z,29.00
2019-06-20T10:35:03.401Z,29.15
2019-06-20T10:36:03.398Z,29.18
2019-06-20T10:37:03.430Z,29.21
2019-06-20T10:38:03.378Z,29.25
2019-06-20T10:39:03.372Z,29.35
2019-06-20T10:40:03.353Z,29.32
2019-06-20T10:41:03.350Z,29.22
2019-06-20T10:42:03.358Z,29.00
2019-06-20T10:43:15.116Z,29.00
2019-06-20T10:44:03.311Z,29.00
2019-06-20T10:45:03.446Z,29.07
2019-06-20T10:46:03.289Z,29.34
2019-06-20T10:47:03.316Z,29.34
2019-06-20T10:48:04.265Z,29.31
2019-06-20T10:49:03.259Z,29.27
2019-06-20T10:50:03.244Z,29.43
2019-06-20T10:51:03.231Z,29.37
2019-06-20T10:52:03.233Z,29.35
2019-06-20T10:53:03.222Z,29.27
2019-06-20T10:54:03.203Z,29.28
2019-06-20T10:55:03.211Z,29.34
2019-06-20T10:56:03.199Z,29.34
2019-06-20T10:57:03.177Z,29.40
2019-06-20T10:58:03.183Z,29.35
2019-06-20T10:59:03.158Z,29.25
2019-06-20T11:00:03.146Z,29.18
2019-06-20T11:01:03.126Z,29.21
2019-06-20T11:02:03.137Z,29.20
2019-06-20T11:03:03.123Z,29.27
2019-06-20T11:04:03.117Z,29.32
2019-06-20T11:05:03.091Z,29.35
2019-06-20T11:06:03.083Z,29.65
2019-06-20T11:07:03.069Z,29.55
2019-06-20T11:08:03.098Z,29.65
2019-06-20T11:09:03.045Z,29.42
2019-06-20T11:10:03.040Z,29.34
2019-06-20T11:11:03.032Z,29.37
2019-06-20T11:12:03.020Z,29.47
2019-06-20T11:13:03.010Z,29.53
2019-06-20T11:14:14.942Z,29.30
2019-06-20T11:15:02.984Z,29.06
2019-06-20T11:16:02.979Z,29.22
2019-06-20T11:17:02.959Z,29.35
2019-06-20T11:18:02.949Z,29.32
2019-06-20T11:19:02.953Z,29.34
2019-06-20T11:20:03.108Z,29.32
2019-06-20T11:21:02.928Z,29.58
2019-06-20T11:22:02.914Z,29.61
2019-06-20T11:23:02.905Z,29.71
2019-06-20T11:24:02.893Z,29.71
2019-06-20T11:25:02.937Z,29.57
2019-06-20T11:26:02.892Z,29.43
2019-06-20T11:27:02.862Z,29.58
2019-06-20T11:28:02.882Z,29.44
2019-06-20T11:29:02.845Z,29.30
2019-06-20T11:30:02.868Z,29.30
2019-06-20T11:31:02.828Z,29.50
2019-06-20T11:32:02.818Z,29.67
2019-06-20T11:33:02.796Z,29.52
2019-06-20T11:34:02.793Z,29.50
2019-06-20T11:35:02.779Z,29.44
2019-06-20T11:36:02.836Z,29.46
2019-06-20T11:37:02.754Z,29.35
2019-06-20T11:38:02.746Z,29.49
2019-06-20T11:39:02.737Z,29.58
2019-06-20T11:40:02.723Z,29.46
2019-06-20T11:41:02.713Z,29.64
2019-06-20T11:42:02.707Z,29.39
2019-06-20T11:43:02.711Z,29.44
2019-06-20T11:44:02.686Z,29.53
2019-06-20T11:45:14.300Z,29.57
2019-06-20T11:46:02.656Z,29.58
2019-06-20T11:47:02.666Z,29.49
2019-06-20T11:48:02.693Z,29.44
2019-06-20T11:49:02.628Z,29.27
2019-06-20T11:50:02.629Z,29.31
2019-06-20T11:51:02.605Z,29.12
2019-06-20T11:52:02.600Z,29.05
2019-06-20T11:53:02.605Z,29.02
2019-06-20T11:54:02.590Z,29.24
2019-06-20T11:55:02.563Z,29.27
2019-06-20T11:56:02.675Z,29.44
2019-06-20T11:57:02.563Z,29.57
2019-06-20T11:58:02.614Z,29.76
2019-06-20T11:59:02.519Z,29.71
2019-06-20T12:00:02.520Z,29.83
2019-06-20T12:01:04.161Z,29.55
2019-06-20T12:02:02.496Z,29.31
2019-06-20T12:03:02.510Z,29.03
2019-06-20T12:04:02.482Z,28.97
2019-06-20T12:05:02.466Z,28.70
2019-06-20T12:06:02.456Z,28.71
2019-06-20T12:07:02.443Z,28.83
2019-06-20T12:08:03.023Z,28.75
2019-06-20T12:09:02.445Z,28.93
2019-06-20T12:10:02.410Z,28.84
2019-06-20T12:11:02.405Z,29.07
2019-06-20T12:12:02.389Z,29.22
2019-06-20T12:13:02.381Z,29.21
2019-06-20T12:14:02.378Z,29.24
2019-06-20T12:15:02.360Z,29.31
2019-06-20T12:16:14.651Z,29.39
2019-06-20T12:17:02.354Z,29.39
2019-06-20T12:18:02.359Z,29.25
2019-06-20T12:19:02.325Z,29.27
2019-06-20T12:20:02.300Z,29.37
2019-06-20T12:21:02.300Z,29.12
2019-06-20T12:22:02.337Z,29.16
2019-06-20T12:23:02.282Z,29.06
2019-06-20T12:24:02.333Z,29.02
2019-06-20T12:25:02.265Z,29.15
2019-06-20T12:26:02.252Z,29.24
2019-06-20T12:27:02.245Z,29.28
2019-06-20T12:28:02.217Z,29.39
2019-06-20T12:29:02.216Z,29.47
2019-06-20T12:30:02.209Z,29.65
2019-06-20T12:31:02.205Z,29.37
2019-06-20T12:32:02.185Z,29.10
2019-06-20T12:33:02.204Z,29.22
2019-06-20T12:34:02.160Z,29.31
2019-06-20T12:35:02.154Z,29.37
2019-06-20T12:36:02.153Z,29.43
2019-06-20T12:37:02.130Z,29.44
2019-06-20T12:38:02.111Z,29.32
2019-06-20T12:39:02.105Z,29.35
2019-06-20T12:40:02.095Z,29.53
2019-06-20T12:41:02.105Z,29.46
2019-06-20T12:42:02.084Z,29.34
2019-06-20T12:43:02.102Z,29.35
2019-06-20T12:44:02.052Z,29.25
2019-06-20T12:45:02.039Z,29.35
2019-06-20T12:46:02.036Z,29.49
2019-06-20T12:47:13.939Z,29.52
2019-06-20T12:48:02.016Z,29.57
2019-06-20T12:49:02.001Z,29.61
2019-06-20T12:50:02.000Z,29.31
2019-06-20T12:51:01.982Z,29.32
2019-06-20T12:52:01.980Z,29.37
2019-06-20T12:53:01.963Z,29.61
2019-06-20T12:54:01.949Z,29.73
2019-06-20T12:55:01.948Z,29.76
2019-06-20T12:56:01.931Z,29.87
2019-06-20T12:57:01.916Z,29.67